sensor_id;sensor_type;location;lat;lon;timestamp;P1;durP1;ratioP1;P2;durP2;ratioP2
1777;SDS011;71547;50.146;8.174;2023-07-20T00:02:00;5.27;;;3.40;;
1777;SDS011;71547;50.146;8.174;2023-07-20T00:04:36;6.50;;;3.10;;
1777;SDS011;71547;50.146;8.174;2023-07-20T00:07:04;4.70;;;2.83;;
1777;SDS011;71547;50.146;8.174;2023-07-20T00:09:36;2.70;;;2.50;;
1777;SDS011;71547;50.146;8.174;2023-07-20T00:12:06;3.40;;;3.10;;
1777;SDS011;71547;50.146;8.174;2023-07-20T00:14:52;3.07;;;2.50;;
1777;SDS011;71547;50.146;8.174;2023-07-20T00:17:20;5.10;;;2.90;;
1777;SDS011;71547;50.146;8.174;2023-07-20T00:19:48;4.13;;;2.70;;
1777;SDS011;71547;50.146;8.174;2023-07-20T00:22:15;6.40;;;2.93;;
1777;SDS011;71547;50.146;8.174;2023-07-20T00:24:45;2.80;;;2.60;;
1777;SDS011;71547;50.146;8.174;2023-07-20T00:27:14;3.23;;;2.93;;
1777;SDS011;71547;50.146;8.174;2023-07-20T00:29:42;3.50;;;2.80;;
1777;SDS011;71547;50.146;8.174;2023-07-20T00:32:09;3.70;;;2.87;;
1777;SDS011;71547;50.146;8.174;2023-07-20T00:34:37;2.80;;;2.60;;
1777;SDS011;71547;50.146;8.174;2023-07-20T00:37:05;4.10;;;2.90;;
1777;SDS011;71547;50.146;8.174;2023-07-20T00:39:34;4.03;;;2.90;;
1777;SDS011;71547;50.146;8.174;2023-07-20T00:42:02;3.30;;;3.00;;
1777;SDS011;71547;50.146;8.174;2023-07-20T00:44:36;6.77;;;3.40;;
1777;SDS011;71547;50.146;8.174;2023-07-20T00:47:04;2.67;;;2.47;;
1777;SDS011;71547;50.146;8.174;2023-07-20T00:49:37;3.20;;;2.60;;
1777;SDS011;71547;50.146;8.174;2023-07-20T00:52:08;5.43;;;2.90;;
1777;SDS011;71547;50.146;8.174;2023-07-20T00:54:43;4.60;;;3.20;;
1777;SDS011;71547;50.146;8.174;2023-07-20T00:57:14;4.30;;;2.87;;
1777;SDS011;71547;50.146;8.174;2023-07-20T00:59:44;6.13;;;2.70;;
1777;SDS011;71547;50.146;8.174;2023-07-20T01:02:11;3.00;;;2.80;;
1777;SDS011;71547;50.146;8.174;2023-07-20T01:04:39;3.60;;;3.30;;
1777;SDS011;71547;50.146;8.174;2023-07-20T01:07:10;3.40;;;2.60;;
1777;SDS011;71547;50.146;8.174;2023-07-20T01:09:44;3.10;;;2.90;;
1777;SDS011;71547;50.146;8.174;2023-07-20T01:12:30;4.50;;;3.17;;
1777;SDS011;71547;50.146;8.174;2023-07-20T01:15:08;5.77;;;2.73;;
1777;SDS011;71547;50.146;8.174;2023-07-20T01:17:37;5.13;;;2.87;;
1777;SDS011;71547;50.146;8.174;2023-07-20T01:20:05;3.10;;;2.80;;
1777;SDS011;71547;50.146;8.174;2023-07-20T01:26:02;3.40;;;3.10;;
1777;SDS011;71547;50.146;8.174;2023-07-20T01:28:57;5.17;;;2.70;;
1777;SDS011;71547;50.146;8.174;2023-07-20T01:31:45;3.93;;;3.37;;
1777;SDS011;71547;50.146;8.174;2023-07-20T01:34:21;4.40;;;3.00;;
1777;SDS011;71547;50.146;8.174;2023-07-20T01:36:53;4.33;;;2.93;;
1777;SDS011;71547;50.146;8.174;2023-07-20T01:39:28;5.63;;;3.07;;
1777;SDS011;71547;50.146;8.174;2023-07-20T01:42:01;3.80;;;2.80;;
1777;SDS011;71547;50.146;8.174;2023-07-20T01:44:39;3.57;;;2.80;;
1777;SDS011;71547;50.146;8.174;2023-07-20T01:47:07;3.87;;;3.37;;
1777;SDS011;71547;50.146;8.174;2023-07-20T01:49:37;2.93;;;2.40;;
1777;SDS011;71547;50.146;8.174;2023-07-20T01:52:05;3.37;;;3.10;;
1777;SDS011;71547;50.146;8.174;2023-07-20T01:54:37;5.97;;;3.27;;
1777;SDS011;71547;50.146;8.174;2023-07-20T01:57:07;3.53;;;2.57;;
1777;SDS011;71547;50.146;8.174;2023-07-20T01:59:35;5.20;;;2.70;;
1777;SDS011;71547;50.146;8.174;2023-07-20T02:02:02;2.70;;;2.50;;
1777;SDS011;71547;50.146;8.174;2023-07-20T02:04:33;2.43;;;2.23;;
1777;SDS011;71547;50.146;8.174;2023-07-20T02:07:01;3.60;;;3.03;;
1777;SDS011;71547;50.146;8.174;2023-07-20T02:09:29;3.37;;;3.17;;
1777;SDS011;71547;50.146;8.174;2023-07-20T02:12:10;3.40;;;2.90;;
1777;SDS011;71547;50.146;8.174;2023-07-20T02:14:38;3.03;;;2.83;;
1777;SDS011;71547;50.146;8.174;2023-07-20T02:17:05;5.73;;;3.50;;
1777;SDS011;71547;50.146;8.174;2023-07-20T02:19:35;5.00;;;3.30;;
1777;SDS011;71547;50.146;8.174;2023-07-20T02:22:03;2.90;;;2.63;;
1777;SDS011;71547;50.146;8.174;2023-07-20T02:24:36;5.30;;;3.20;;
1777;SDS011;71547;50.146;8.174;2023-07-20T02:27:04;6.13;;;2.80;;
1777;SDS011;71547;50.146;8.174;2023-07-20T02:29:35;4.07;;;2.90;;
1777;SDS011;71547;50.146;8.174;2023-07-20T02:32:03;3.50;;;3.20;;
1777;SDS011;71547;50.146;8.174;2023-07-20T02:34:36;3.90;;;3.17;;
1777;SDS011;71547;50.146;8.174;2023-07-20T02:37:04;3.43;;;2.83;;
1777;SDS011;71547;50.146;8.174;2023-07-20T02:39:44;2.67;;;2.43;;
1777;SDS011;71547;50.146;8.174;2023-07-20T02:42:11;4.80;;;2.90;;
1777;SDS011;71547;50.146;8.174;2023-07-20T02:44:39;3.33;;;3.03;;
1777;SDS011;71547;50.146;8.174;2023-07-20T02:47:06;4.17;;;3.37;;
1777;SDS011;71547;50.146;8.174;2023-07-20T02:49:34;5.30;;;3.13;;
1777;SDS011;71547;50.146;8.174;2023-07-20T02:52:06;4.90;;;3.30;;
1777;SDS011;71547;50.146;8.174;2023-07-20T02:54:34;6.10;;;3.40;;
1777;SDS011;71547;50.146;8.174;2023-07-20T02:57:03;4.37;;;2.97;;
1777;SDS011;71547;50.146;8.174;2023-07-20T02:59:32;4.20;;;3.20;;
1777;SDS011;71547;50.146;8.174;2023-07-20T03:02:03;5.00;;;3.53;;
1777;SDS011;71547;50.146;8.174;2023-07-20T03:04:35;6.50;;;3.07;;
1777;SDS011;71547;50.146;8.174;2023-07-20T03:07:06;3.20;;;2.90;;
1777;SDS011;71547;50.146;8.174;2023-07-20T03:09:38;3.03;;;2.83;;
1777;SDS011;71547;50.146;8.174;2023-07-20T03:12:08;4.43;;;3.70;;
1777;SDS011;71547;50.146;8.174;2023-07-20T03:14:39;5.33;;;3.23;;
1777;SDS011;71547;50.146;8.174;2023-07-20T03:17:06;3.70;;;2.97;;
1777;SDS011;71547;50.146;8.174;2023-07-20T03:19:36;3.33;;;3.03;;
1777;SDS011;71547;50.146;8.174;2023-07-20T03:22:04;3.67;;;2.83;;
1777;SDS011;71547;50.146;8.174;2023-07-20T03:24:35;5.10;;;3.10;;
1777;SDS011;71547;50.146;8.174;2023-07-20T03:27:04;3.50;;;3.17;;
1777;SDS011;71547;50.146;8.174;2023-07-20T03:29:34;3.10;;;2.83;;
1777;SDS011;71547;50.146;8.174;2023-07-20T03:32:08;3.40;;;3.10;;
1777;SDS011;71547;50.146;8.174;2023-07-20T03:34:37;3.30;;;3.00;;
1777;SDS011;71547;50.146;8.174;2023-07-20T03:37:06;4.97;;;3.47;;
1777;SDS011;71547;50.146;8.174;2023-07-20T03:39:36;3.50;;;3.20;;
1777;SDS011;71547;50.146;8.174;2023-07-20T03:42:06;3.20;;;2.90;;
1777;SDS011;71547;50.146;8.174;2023-07-20T03:44:43;4.30;;;4.00;;
1777;SDS011;71547;50.146;8.174;2023-07-20T03:47:11;4.30;;;2.70;;
1777;SDS011;71547;50.146;8.174;2023-07-20T03:49:42;6.83;;;3.20;;
1777;SDS011;71547;50.146;8.174;2023-07-20T03:52:09;3.00;;;2.70;;
1777;SDS011;71547;50.146;8.174;2023-07-20T03:54:39;3.63;;;3.23;;
1777;SDS011;71547;50.146;8.174;2023-07-20T03:57:10;3.40;;;3.10;;
1777;SDS011;71547;50.146;8.174;2023-07-20T03:59:50;6.60;;;3.50;;
1777;SDS011;71547;50.146;8.174;2023-07-20T04:02:17;3.97;;;3.57;;
1777;SDS011;71547;50.146;8.174;2023-07-20T04:04:50;3.83;;;3.37;;
1777;SDS011;71547;50.146;8.174;2023-07-20T04:07:18;4.97;;;2.80;;
1777;SDS011;71547;50.146;8.174;2023-07-20T04:09:46;3.50;;;3.10;;
1777;SDS011;71547;50.146;8.174;2023-07-20T04:12:18;3.37;;;2.73;;
1777;SDS011;71547;50.146;8.174;2023-07-20T04:14:47;3.63;;;3.20;;
1777;SDS011;71547;50.146;8.174;2023-07-20T04:17:14;7.43;;;3.00;;
1777;SDS011;71547;50.146;8.174;2023-07-20T04:19:43;4.50;;;3.10;;
1777;SDS011;71547;50.146;8.174;2023-07-20T04:22:14;3.33;;;3.03;;
1777;SDS011;71547;50.146;8.174;2023-07-20T04:24:42;3.53;;;2.87;;
1777;SDS011;71547;50.146;8.174;2023-07-20T04:27:09;4.43;;;3.33;;
1777;SDS011;71547;50.146;8.174;2023-07-20T04:29:42;4.17;;;3.60;;
1777;SDS011;71547;50.146;8.174;2023-07-20T04:32:11;4.10;;;2.80;;
1777;SDS011;71547;50.146;8.174;2023-07-20T04:34:39;3.03;;;2.73;;
1777;SDS011;71547;50.146;8.174;2023-07-20T04:37:10;4.63;;;3.20;;
1777;SDS011;71547;50.146;8.174;2023-07-20T04:39:40;3.60;;;3.07;;
1777;SDS011;71547;50.146;8.174;2023-07-20T04:42:07;2.63;;;2.43;;
1777;SDS011;71547;50.146;8.174;2023-07-20T04:44:35;3.87;;;3.57;;
1777;SDS011;71547;50.146;8.174;2023-07-20T04:47:13;3.90;;;3.20;;
1777;SDS011;71547;50.146;8.174;2023-07-20T04:49:43;3.43;;;3.13;;
1777;SDS011;71547;50.146;8.174;2023-07-20T04:52:10;4.33;;;3.63;;
1777;SDS011;71547;50.146;8.174;2023-07-20T04:54:41;3.90;;;3.57;;
1777;SDS011;71547;50.146;8.174;2023-07-20T04:57:10;2.87;;;2.57;;
1777;SDS011;71547;50.146;8.174;2023-07-20T04:59:39;2.80;;;2.60;;
1777;SDS011;71547;50.146;8.174;2023-07-20T05:02:06;3.57;;;3.27;;
1777;SDS011;71547;50.146;8.174;2023-07-20T05:04:36;3.97;;;2.60;;
1777;SDS011;71547;50.146;8.174;2023-07-20T05:07:06;3.83;;;3.00;;
1777;SDS011;71547;50.146;8.174;2023-07-20T05:09:35;4.13;;;3.77;;
1777;SDS011;71547;50.146;8.174;2023-07-20T05:12:05;4.80;;;3.40;;
1777;SDS011;71547;50.146;8.174;2023-07-20T05:14:40;3.93;;;3.60;;
1777;SDS011;71547;50.146;8.174;2023-07-20T05:17:08;3.20;;;2.80;;
1777;SDS011;71547;50.146;8.174;2023-07-20T05:19:38;3.30;;;3.03;;
1777;SDS011;71547;50.146;8.174;2023-07-20T05:22:10;4.10;;;3.03;;
1777;SDS011;71547;50.146;8.174;2023-07-20T05:24:40;3.27;;;3.07;;
1777;SDS011;71547;50.146;8.174;2023-07-20T05:27:16;3.23;;;2.70;;
1777;SDS011;71547;50.146;8.174;2023-07-20T05:29:43;3.30;;;3.10;;
1777;SDS011;71547;50.146;8.174;2023-07-20T05:32:11;2.83;;;2.40;;
1777;SDS011;71547;50.146;8.174;2023-07-20T05:34:41;3.97;;;3.60;;
1777;SDS011;71547;50.146;8.174;2023-07-20T05:37:11;4.43;;;3.40;;
1777;SDS011;71547;50.146;8.174;2023-07-20T05:39:44;3.53;;;3.23;;
1777;SDS011;71547;50.146;8.174;2023-07-20T05:42:12;3.37;;;3.07;;
1777;SDS011;71547;50.146;8.174;2023-07-20T05:44:47;4.30;;;3.30;;
1777;SDS011;71547;50.146;8.174;2023-07-20T05:47:16;7.23;;;4.10;;
1777;SDS011;71547;50.146;8.174;2023-07-20T05:49:46;14.70;;;4.10;;
1777;SDS011;71547;50.146;8.174;2023-07-20T05:52:14;5.80;;;4.00;;
1777;SDS011;71547;50.146;8.174;2023-07-20T05:54:41;3.50;;;3.17;;
1777;SDS011;71547;50.146;8.174;2023-07-20T05:57:10;4.57;;;3.50;;
1777;SDS011;71547;50.146;8.174;2023-07-20T05:59:39;5.40;;;3.40;;
1777;SDS011;71547;50.146;8.174;2023-07-20T06:02:10;5.00;;;3.33;;
1777;SDS011;71547;50.146;8.174;2023-07-20T06:04:40;9.83;;;3.67;;
1777;SDS011;71547;50.146;8.174;2023-07-20T06:07:16;3.07;;;2.87;;
1777;SDS011;71547;50.146;8.174;2023-07-20T06:09:45;2.97;;;2.70;;
1777;SDS011;71547;50.146;8.174;2023-07-20T06:12:15;4.43;;;3.70;;
1777;SDS011;71547;50.146;8.174;2023-07-20T06:14:43;3.63;;;3.33;;
1777;SDS011;71547;50.146;8.174;2023-07-20T06:17:10;3.67;;;3.00;;
1777;SDS011;71547;50.146;8.174;2023-07-20T06:19:40;4.50;;;3.20;;
1777;SDS011;71547;50.146;8.174;2023-07-20T06:22:07;3.77;;;3.47;;
1777;SDS011;71547;50.146;8.174;2023-07-20T06:24:37;4.50;;;3.20;;
1777;SDS011;71547;50.146;8.174;2023-07-20T06:27:12;4.87;;;3.23;;
1777;SDS011;71547;50.146;8.174;2023-07-20T06:29:50;7.63;;;3.27;;
1777;SDS011;71547;50.146;8.174;2023-07-20T06:32:18;4.90;;;3.40;;
1777;SDS011;71547;50.146;8.174;2023-07-20T06:34:46;5.33;;;3.50;;
1777;SDS011;71547;50.146;8.174;2023-07-20T06:37:14;4.53;;;3.40;;
1777;SDS011;71547;50.146;8.174;2023-07-20T06:39:41;5.90;;;3.80;;
1777;SDS011;71547;50.146;8.174;2023-07-20T06:42:12;5.00;;;4.40;;
1777;SDS011;71547;50.146;8.174;2023-07-20T06:44:41;5.03;;;3.67;;
1777;SDS011;71547;50.146;8.174;2023-07-20T06:47:14;8.23;;;4.00;;
1777;SDS011;71547;50.146;8.174;2023-07-20T06:49:42;5.43;;;3.70;;
1777;SDS011;71547;50.146;8.174;2023-07-20T06:52:09;5.70;;;4.27;;
1777;SDS011;71547;50.146;8.174;2023-07-20T06:54:39;7.00;;;3.50;;
1777;SDS011;71547;50.146;8.174;2023-07-20T06:57:12;7.43;;;3.50;;
1777;SDS011;71547;50.146;8.174;2023-07-20T06:59:45;4.03;;;3.73;;
1777;SDS011;71547;50.146;8.174;2023-07-20T07:02:15;4.60;;;3.90;;
1777;SDS011;71547;50.146;8.174;2023-07-20T07:04:48;4.13;;;3.53;;
1777;SDS011;71547;50.146;8.174;2023-07-20T07:07:15;8.33;;;3.93;;
1777;SDS011;71547;50.146;8.174;2023-07-20T07:10:04;4.63;;;4.23;;
1777;SDS011;71547;50.146;8.174;2023-07-20T07:12:35;3.60;;;3.30;;
1777;SDS011;71547;50.146;8.174;2023-07-20T07:17:34;3.00;;;2.80;;
1777;SDS011;71547;50.146;8.174;2023-07-20T07:20:04;7.00;;;3.60;;
1777;SDS011;71547;50.146;8.174;2023-07-20T07:22:47;3.50;;;3.20;;
1777;SDS011;71547;50.146;8.174;2023-07-20T07:25:17;3.37;;;3.07;;
1777;SDS011;71547;50.146;8.174;2023-07-20T07:27:50;5.00;;;3.27;;
1777;SDS011;71547;50.146;8.174;2023-07-20T07:30:21;3.20;;;2.90;;
1777;SDS011;71547;50.146;8.174;2023-07-20T07:32:49;3.13;;;2.83;;
1777;SDS011;71547;50.146;8.174;2023-07-20T07:35:21;3.63;;;3.00;;
1777;SDS011;71547;50.146;8.174;2023-07-20T07:37:49;9.07;;;3.30;;
1777;SDS011;71547;50.146;8.174;2023-07-20T07:40:32;3.60;;;3.30;;
1777;SDS011;71547;50.146;8.174;2023-07-20T07:43:05;7.00;;;3.87;;
1777;SDS011;71547;50.146;8.174;2023-07-20T07:45:40;4.90;;;3.37;;
1777;SDS011;71547;50.146;8.174;2023-07-20T07:48:09;4.67;;;3.63;;
1777;SDS011;71547;50.146;8.174;2023-07-20T07:50:43;6.40;;;3.97;;
1777;SDS011;71547;50.146;8.174;2023-07-20T07:53:10;6.27;;;3.63;;
1777;SDS011;71547;50.146;8.174;2023-07-20T07:55:40;4.17;;;3.50;;
1777;SDS011;71547;50.146;8.174;2023-07-20T07:58:11;4.63;;;3.53;;
1777;SDS011;71547;50.146;8.174;2023-07-20T08:00:44;3.80;;;3.47;;
1777;SDS011;71547;50.146;8.174;2023-07-20T08:03:11;3.53;;;3.23;;
1777;SDS011;71547;50.146;8.174;2023-07-20T08:05:40;5.17;;;3.20;;
1777;SDS011;71547;50.146;8.174;2023-07-20T08:08:07;3.20;;;2.90;;
1777;SDS011;71547;50.146;8.174;2023-07-20T08:10:43;6.77;;;2.80;;
1777;SDS011;71547;50.146;8.174;2023-07-20T08:13:14;5.63;;;3.20;;
1777;SDS011;71547;50.146;8.174;2023-07-20T08:15:48;4.40;;;3.23;;
1777;SDS011;71547;50.146;8.174;2023-07-20T08:18:18;3.30;;;2.87;;
1777;SDS011;71547;50.146;8.174;2023-07-20T08:20:48;4.53;;;3.60;;
1777;SDS011;71547;50.146;8.174;2023-07-20T08:23:19;4.53;;;3.10;;
1777;SDS011;71547;50.146;8.174;2023-07-20T08:25:54;3.33;;;3.07;;
1777;SDS011;71547;50.146;8.174;2023-07-20T08:28:24;3.17;;;2.87;;
1777;SDS011;71547;50.146;8.174;2023-07-20T08:30:55;7.53;;;3.20;;
1777;SDS011;71547;50.146;8.174;2023-07-20T08:33:23;3.67;;;3.37;;
1777;SDS011;71547;50.146;8.174;2023-07-20T08:35:51;3.27;;;2.97;;
1777;SDS011;71547;50.146;8.174;2023-07-20T08:38:18;5.10;;;3.70;;
1777;SDS011;71547;50.146;8.174;2023-07-20T08:40:51;3.17;;;2.97;;
1777;SDS011;71547;50.146;8.174;2023-07-20T08:43:21;3.90;;;3.10;;
1777;SDS011;71547;50.146;8.174;2023-07-20T08:45:52;3.40;;;3.10;;
1777;SDS011;71547;50.146;8.174;2023-07-20T08:48:24;6.43;;;3.23;;
1777;SDS011;71547;50.146;8.174;2023-07-20T08:50:54;4.00;;;3.20;;
1777;SDS011;71547;50.146;8.174;2023-07-20T08:53:30;3.53;;;3.30;;
1777;SDS011;71547;50.146;8.174;2023-07-20T08:56:04;5.10;;;4.60;;
1777;SDS011;71547;50.146;8.174;2023-07-20T08:58:38;5.07;;;3.00;;
1777;SDS011;71547;50.146;8.174;2023-07-20T09:01:08;3.40;;;3.10;;
1777;SDS011;71547;50.146;8.174;2023-07-20T09:03:37;3.53;;;3.03;;
1777;SDS011;71547;50.146;8.174;2023-07-20T09:06:09;3.33;;;3.03;;
1777;SDS011;71547;50.146;8.174;2023-07-20T09:08:37;3.63;;;3.20;;
1777;SDS011;71547;50.146;8.174;2023-07-20T09:11:06;2.80;;;2.60;;
1777;SDS011;71547;50.146;8.174;2023-07-20T09:13:40;4.90;;;3.63;;
1777;SDS011;71547;50.146;8.174;2023-07-20T09:16:07;3.63;;;3.10;;
1777;SDS011;71547;50.146;8.174;2023-07-20T09:18:43;2.90;;;2.70;;
1777;SDS011;71547;50.146;8.174;2023-07-20T09:21:16;3.07;;;2.63;;
1777;SDS011;71547;50.146;8.174;2023-07-20T09:23:44;3.93;;;2.60;;
1777;SDS011;71547;50.146;8.174;2023-07-20T09:26:12;2.80;;;2.60;;
1777;SDS011;71547;50.146;8.174;2023-07-20T09:28:43;5.67;;;2.30;;
1777;SDS011;71547;50.146;8.174;2023-07-20T09:31:20;3.03;;;2.70;;
1777;SDS011;71547;50.146;8.174;2023-07-20T09:33:54;3.53;;;2.47;;
1777;SDS011;71547;50.146;8.174;2023-07-20T09:36:29;3.23;;;1.93;;
1777;SDS011;71547;50.146;8.174;2023-07-20T09:39:02;2.37;;;2.00;;
1777;SDS011;71547;50.146;8.174;2023-07-20T09:41:39;2.83;;;2.63;;
1777;SDS011;71547;50.146;8.174;2023-07-20T09:44:16;2.80;;;2.30;;
1777;SDS011;71547;50.146;8.174;2023-07-20T09:46:55;2.93;;;2.20;;
1777;SDS011;71547;50.146;8.174;2023-07-20T09:49:25;2.33;;;2.13;;
1777;SDS011;71547;50.146;8.174;2023-07-20T09:52:17;4.20;;;2.17;;
1777;SDS011;71547;50.146;8.174;2023-07-20T09:54:49;2.57;;;2.30;;
1777;SDS011;71547;50.146;8.174;2023-07-20T09:57:17;4.23;;;2.13;;
1777;SDS011;71547;50.146;8.174;2023-07-20T09:59:49;3.00;;;2.80;;
1777;SDS011;71547;50.146;8.174;2023-07-20T10:02:21;2.63;;;2.43;;
1777;SDS011;71547;50.146;8.174;2023-07-20T10:05:01;2.20;;;2.03;;
1777;SDS011;71547;50.146;8.174;2023-07-20T10:07:36;3.13;;;2.20;;
1777;SDS011;71547;50.146;8.174;2023-07-20T10:10:11;3.17;;;2.43;;
1777;SDS011;71547;50.146;8.174;2023-07-20T10:12:43;3.40;;;2.40;;
1777;SDS011;71547;50.146;8.174;2023-07-20T10:15:17;2.87;;;2.50;;
1777;SDS011;71547;50.146;8.174;2023-07-20T10:17:54;4.37;;;3.47;;
1777;SDS011;71547;50.146;8.174;2023-07-20T10:20:36;2.87;;;2.60;;
1777;SDS011;71547;50.146;8.174;2023-07-20T10:23:28;3.40;;;2.97;;
1777;SDS011;71547;50.146;8.174;2023-07-20T10:26:00;2.93;;;2.63;;
1777;SDS011;71547;50.146;8.174;2023-07-20T10:28:29;4.40;;;2.30;;
1777;SDS011;71547;50.146;8.174;2023-07-20T10:31:00;2.30;;;2.20;;
1777;SDS011;71547;50.146;8.174;2023-07-20T10:33:30;2.80;;;2.50;;
1777;SDS011;71547;50.146;8.174;2023-07-20T10:36:01;3.33;;;2.20;;
1777;SDS011;71547;50.146;8.174;2023-07-20T10:38:40;7.60;;;2.50;;
1777;SDS011;71547;50.146;8.174;2023-07-20T10:41:18;2.40;;;2.30;;
1777;SDS011;71547;50.146;8.174;2023-07-20T10:43:59;3.00;;;2.40;;
1777;SDS011;71547;50.146;8.174;2023-07-20T10:46:41;2.67;;;2.43;;
1777;SDS011;71547;50.146;8.174;2023-07-20T10:49:16;4.87;;;2.60;;
1777;SDS011;71547;50.146;8.174;2023-07-20T10:51:58;2.90;;;2.60;;
1777;SDS011;71547;50.146;8.174;2023-07-20T10:54:36;5.30;;;2.50;;
1777;SDS011;71547;50.146;8.174;2023-07-20T10:57:29;5.23;;;2.30;;
1777;SDS011;71547;50.146;8.174;2023-07-20T11:00:09;3.67;;;2.50;;
1777;SDS011;71547;50.146;8.174;2023-07-20T11:02:44;4.60;;;2.37;;
1777;SDS011;71547;50.146;8.174;2023-07-20T11:05:31;2.97;;;2.57;;
1777;SDS011;71547;50.146;8.174;2023-07-20T11:08:09;2.90;;;2.20;;
1777;SDS011;71547;50.146;8.174;2023-07-20T11:11:24;3.30;;;2.63;;
1777;SDS011;71547;50.146;8.174;2023-07-20T11:13:57;3.63;;;2.53;;
1777;SDS011;71547;50.146;8.174;2023-07-20T11:16:33;3.83;;;2.63;;
1777;SDS011;71547;50.146;8.174;2023-07-20T11:19:05;4.60;;;2.70;;
1777;SDS011;71547;50.146;8.174;2023-07-20T11:21:49;4.57;;;2.17;;
1777;SDS011;71547;50.146;8.174;2023-07-20T11:24:29;2.70;;;2.43;;
1777;SDS011;71547;50.146;8.174;2023-07-20T11:26:59;2.73;;;2.30;;
1777;SDS011;71547;50.146;8.174;2023-07-20T11:29:37;2.73;;;2.40;;
1777;SDS011;71547;50.146;8.174;2023-07-20T11:32:07;2.50;;;2.33;;
1777;SDS011;71547;50.146;8.174;2023-07-20T11:34:35;4.03;;;2.47;;
1777;SDS011;71547;50.146;8.174;2023-07-20T11:37:07;3.17;;;2.23;;
1777;SDS011;71547;50.146;8.174;2023-07-20T11:39:37;8.13;;;2.30;;
1777;SDS011;71547;50.146;8.174;2023-07-20T11:42:06;2.30;;;2.10;;
1777;SDS011;71547;50.146;8.174;2023-07-20T11:44:39;2.23;;;2.03;;
1777;SDS011;71547;50.146;8.174;2023-07-20T11:47:09;2.40;;;2.20;;
1777;SDS011;71547;50.146;8.174;2023-07-20T11:49:44;4.03;;;2.20;;
1777;SDS011;71547;50.146;8.174;2023-07-20T11:52:23;2.90;;;2.53;;
1777;SDS011;71547;50.146;8.174;2023-07-20T11:54:51;2.30;;;2.20;;
1777;SDS011;71547;50.146;8.174;2023-07-20T11:57:21;2.50;;;2.30;;
1777;SDS011;71547;50.146;8.174;2023-07-20T11:59:52;5.37;;;3.43;;
1777;SDS011;71547;50.146;8.174;2023-07-20T12:02:22;2.60;;;2.40;;
1777;SDS011;71547;50.146;8.174;2023-07-20T12:04:52;3.43;;;2.47;;
1777;SDS011;71547;50.146;8.174;2023-07-20T12:07:22;2.10;;;1.90;;
1777;SDS011;71547;50.146;8.174;2023-07-20T12:10:02;2.50;;;2.30;;
1777;SDS011;71547;50.146;8.174;2023-07-20T12:12:34;2.30;;;2.20;;
1777;SDS011;71547;50.146;8.174;2023-07-20T12:15:17;2.77;;;2.00;;
1777;SDS011;71547;50.146;8.174;2023-07-20T12:17:52;4.17;;;2.33;;
1777;SDS011;71547;50.146;8.174;2023-07-20T12:20:24;4.40;;;2.13;;
1777;SDS011;71547;50.146;8.174;2023-07-20T12:22:58;2.57;;;2.37;;
1777;SDS011;71547;50.146;8.174;2023-07-20T12:25:32;2.10;;;2.00;;
1777;SDS011;71547;50.146;8.174;2023-07-20T12:28:10;6.10;;;2.00;;
1777;SDS011;71547;50.146;8.174;2023-07-20T12:30:57;3.50;;;2.20;;
1777;SDS011;71547;50.146;8.174;2023-07-20T12:33:33;3.37;;;2.10;;
1777;SDS011;71547;50.146;8.174;2023-07-20T12:36:01;3.30;;;2.10;;
1777;SDS011;71547;50.146;8.174;2023-07-20T12:38:31;2.20;;;2.10;;
1777;SDS011;71547;50.146;8.174;2023-07-20T12:41:01;2.20;;;1.87;;
1777;SDS011;71547;50.146;8.174;2023-07-20T12:43:32;3.60;;;2.27;;
1777;SDS011;71547;50.146;8.174;2023-07-20T12:46:00;2.20;;;2.10;;
1777;SDS011;71547;50.146;8.174;2023-07-20T12:48:28;4.70;;;1.93;;
1777;SDS011;71547;50.146;8.174;2023-07-20T12:50:56;2.03;;;1.93;;
1777;SDS011;71547;50.146;8.174;2023-07-20T12:53:25;2.17;;;1.97;;
1777;SDS011;71547;50.146;8.174;2023-07-20T12:55:57;2.07;;;1.87;;
1777;SDS011;71547;50.146;8.174;2023-07-20T12:58:48;2.23;;;2.03;;
1777;SDS011;71547;50.146;8.174;2023-07-20T13:01:16;2.10;;;2.00;;
1777;SDS011;71547;50.146;8.174;2023-07-20T13:03:48;2.50;;;2.30;;
1777;SDS011;71547;50.146;8.174;2023-07-20T13:06:18;2.47;;;2.30;;
1777;SDS011;71547;50.146;8.174;2023-07-20T13:08:50;2.70;;;2.13;;
1777;SDS011;71547;50.146;8.174;2023-07-20T13:11:25;8.23;;;2.10;;
1777;SDS011;71547;50.146;8.174;2023-07-20T13:13:55;2.47;;;2.10;;
1777;SDS011;71547;50.146;8.174;2023-07-20T13:16:26;1.83;;;1.73;;
1777;SDS011;71547;50.146;8.174;2023-07-20T13:18:54;2.10;;;2.00;;
1777;SDS011;71547;50.146;8.174;2023-07-20T13:21:23;2.40;;;2.20;;
1777;SDS011;71547;50.146;8.174;2023-07-20T13:23:52;3.60;;;1.90;;
1777;SDS011;71547;50.146;8.174;2023-07-20T13:26:19;2.53;;;2.17;;
1777;SDS011;71547;50.146;8.174;2023-07-20T13:28:47;4.20;;;2.23;;
1777;SDS011;71547;50.146;8.174;2023-07-20T13:31:16;3.33;;;2.07;;
1777;SDS011;71547;50.146;8.174;2023-07-20T13:33:50;2.80;;;2.07;;
1777;SDS011;71547;50.146;8.174;2023-07-20T13:36:25;2.17;;;1.97;;
1777;SDS011;71547;50.146;8.174;2023-07-20T13:38:56;1.80;;;1.70;;
1777;SDS011;71547;50.146;8.174;2023-07-20T13:41:25;2.90;;;2.27;;
1777;SDS011;71547;50.146;8.174;2023-07-20T13:44:01;3.77;;;1.90;;
1777;SDS011;71547;50.146;8.174;2023-07-20T13:46:36;8.70;;;2.13;;
1777;SDS011;71547;50.146;8.174;2023-07-20T13:49:07;2.50;;;2.20;;
1777;SDS011;71547;50.146;8.174;2023-07-20T13:51:48;2.53;;;2.33;;
1777;SDS011;71547;50.146;8.174;2023-07-20T13:54:35;2.57;;;1.70;;
1777;SDS011;71547;50.146;8.174;2023-07-20T13:57:12;2.70;;;2.13;;
1777;SDS011;71547;50.146;8.174;2023-07-20T13:59:43;3.03;;;2.33;;
1777;SDS011;71547;50.146;8.174;2023-07-20T14:02:15;2.60;;;2.40;;
1777;SDS011;71547;50.146;8.174;2023-07-20T14:04:52;2.60;;;1.80;;
1777;SDS011;71547;50.146;8.174;2023-07-20T14:07:25;2.40;;;2.20;;
1777;SDS011;71547;50.146;8.174;2023-07-20T14:09:53;5.93;;;2.73;;
1777;SDS011;71547;50.146;8.174;2023-07-20T14:12:26;3.20;;;1.77;;
1777;SDS011;71547;50.146;8.174;2023-07-20T14:14:55;2.90;;;1.93;;
1777;SDS011;71547;50.146;8.174;2023-07-20T14:17:36;3.50;;;2.13;;
1777;SDS011;71547;50.146;8.174;2023-07-20T14:20:06;2.80;;;1.90;;
1777;SDS011;71547;50.146;8.174;2023-07-20T14:22:41;3.37;;;2.20;;
1777;SDS011;71547;50.146;8.174;2023-07-20T14:25:12;2.50;;;2.30;;
1777;SDS011;71547;50.146;8.174;2023-07-20T14:27:40;2.73;;;2.53;;
1777;SDS011;71547;50.146;8.174;2023-07-20T14:30:07;2.80;;;2.10;;
1777;SDS011;71547;50.146;8.174;2023-07-20T14:32:40;2.50;;;2.30;;
1777;SDS011;71547;50.146;8.174;2023-07-20T14:35:08;2.67;;;2.17;;
1777;SDS011;71547;50.146;8.174;2023-07-20T14:37:36;8.70;;;2.20;;
1777;SDS011;71547;50.146;8.174;2023-07-20T14:40:04;2.00;;;1.77;;
1777;SDS011;71547;50.146;8.174;2023-07-20T14:42:40;3.30;;;2.10;;
1777;SDS011;71547;50.146;8.174;2023-07-20T14:45:10;2.63;;;1.90;;
1777;SDS011;71547;50.146;8.174;2023-07-20T14:47:39;2.40;;;2.30;;
1777;SDS011;71547;50.146;8.174;2023-07-20T14:50:07;2.57;;;2.37;;
1777;SDS011;71547;50.146;8.174;2023-07-20T14:52:37;2.40;;;2.20;;
1777;SDS011;71547;50.146;8.174;2023-07-20T14:55:14;2.20;;;1.73;;
1777;SDS011;71547;50.146;8.174;2023-07-20T14:57:46;2.10;;;2.00;;
1777;SDS011;71547;50.146;8.174;2023-07-20T15:00:16;2.47;;;2.27;;
1777;SDS011;71547;50.146;8.174;2023-07-20T15:02:52;3.23;;;2.13;;
1777;SDS011;71547;50.146;8.174;2023-07-20T15:05:23;2.83;;;2.10;;
1777;SDS011;71547;50.146;8.174;2023-07-20T15:07:57;2.67;;;2.47;;
1777;SDS011;71547;50.146;8.174;2023-07-20T15:10:27;2.33;;;2.10;;
1777;SDS011;71547;50.146;8.174;2023-07-20T15:13:01;4.23;;;1.93;;
1777;SDS011;71547;50.146;8.174;2023-07-20T15:15:29;5.53;;;2.20;;
1777;SDS011;71547;50.146;8.174;2023-07-20T15:17:58;4.13;;;2.10;;
1777;SDS011;71547;50.146;8.174;2023-07-20T15:20:30;4.57;;;2.23;;
1777;SDS011;71547;50.146;8.174;2023-07-20T15:23:00;3.23;;;1.83;;
1777;SDS011;71547;50.146;8.174;2023-07-20T15:25:30;1.97;;;1.80;;
1777;SDS011;71547;50.146;8.174;2023-07-20T15:28:00;2.33;;;2.13;;
1777;SDS011;71547;50.146;8.174;2023-07-20T15:30:37;2.30;;;2.10;;
1777;SDS011;71547;50.146;8.174;2023-07-20T15:33:09;4.83;;;2.07;;
1777;SDS011;71547;50.146;8.174;2023-07-20T15:35:42;1.87;;;1.77;;